sensor_id;sensor_type;location;lat;lon;timestamp;pressure;altitude;pressure_sealevel;temperature;humidity
45129;BME280;35512;56.312;101.728;2023-09-19T00:00:46;96572.38;;;10.19;55.87
45129;BME280;35512;56.312;101.728;2023-09-19T00:03:17;96577.78;;;10.38;55.93
45129;BME280;35512;56.312;101.728;2023-09-19T00:05:46;96576.25;;;10.60;55.78
45129;BME280;35512;56.312;101.728;2023-09-19T00:08:15;96570.88;;;10.83;55.40
45129;BME280;35512;56.312;101.728;2023-09-19T00:10:44;96572.84;;;11.10;55.57
45129;BME280;35512;56.312;101.728;2023-09-19T00:13:12;96578.63;;;11.35;55.14
45129;BME280;35512;56.312;101.728;2023-09-19T00:15:44;96584.06;;;11.62;55.00
45129;BME280;35512;56.312;101.728;2023-09-19T00:18:19;96577.06;;;11.88;54.53
45129;BME280;35512;56.312;101.728;2023-09-19T00:20:50;96572.78;;;12.13;54.67
45129;BME280;35512;56.312;101.728;2023-09-19T00:23:20;96581.19;;;12.39;54.35
45129;BME280;35512;56.312;101.728;2023-09-19T00:25:49;96573.72;;;12.66;53.95
45129;BME280;35512;56.312;101.728;2023-09-19T00:28:18;96582.81;;;12.88;53.65
45129;BME280;35512;56.312;101.728;2023-09-19T00:30:47;96580.66;;;13.05;53.81
45129;BME280;35512;56.312;101.728;2023-09-19T00:33:19;96576.53;;;13.22;53.84
45129;BME280;35512;56.312;101.728;2023-09-19T00:35:48;96575.94;;;13.39;53.98
45129;BME280;35512;56.312;101.728;2023-09-19T00:38:16;96577.19;;;13.56;54.06
45129;BME280;35512;56.312;101.728;2023-09-19T00:40:48;96574.19;;;13.72;53.58
45129;BME280;35512;56.312;101.728;2023-09-19T00:43:16;96576.22;;;13.93;53.90
45129;BME280;35512;56.312;101.728;2023-09-19T00:45:46;96566.75;;;14.57;53.04
45129;BME280;35512;56.312;101.728;2023-09-19T00:48:16;96568.72;;;15.97;51.07
45129;BME280;35512;56.312;101.728;2023-09-19T00:50:46;96570.19;;;17.43;49.02
45129;BME280;35512;56.312;101.728;2023-09-19T00:53:17;96573.53;;;18.65;48.03
45129;BME280;35512;56.312;101.728;2023-09-19T00:55:46;96572.81;;;19.63;47.69
45129;BME280;35512;56.312;101.728;2023-09-19T00:58:16;96573.91;;;20.50;47.30
45129;BME280;35512;56.312;101.728;2023-09-19T01:00:47;96572.91;;;21.13;46.73
45129;BME280;35512;56.312;101.728;2023-09-19T01:03:17;96571.34;;;21.78;46.50
45129;BME280;35512;56.312;101.728;2023-09-19T01:05:46;96575.28;;;22.36;46.12
45129;BME280;35512;56.312;101.728;2023-09-19T01:08:15;96569.41;;;22.89;45.79
45129;BME280;35512;56.312;101.728;2023-09-19T01:10:51;96584.56;;;23.45;45.37
45129;BME280;35512;56.312;101.728;2023-09-19T01:29:48;96570.59;;;26.74;42.00
45129;BME280;35512;56.312;101.728;2023-09-19T01:32:17;96570.13;;;27.33;41.24
45129;BME280;35512;56.312;101.728;2023-09-19T01:34:55;96571.19;;;27.70;40.87
45129;BME280;35512;56.312;101.728;2023-09-19T01:37:29;96574.81;;;28.00;40.49
45129;BME280;35512;56.312;101.728;2023-09-19T01:40:04;96571.59;;;28.31;40.43
45129;BME280;35512;56.312;101.728;2023-09-19T01:43:03;96569.22;;;28.69;39.52
45129;BME280;35512;56.312;101.728;2023-09-19T01:48:13;96570.75;;;28.85;38.65
45129;BME280;35512;56.312;101.728;2023-09-19T01:50:59;96570.66;;;29.15;38.47
45129;BME280;35512;56.312;101.728;2023-09-19T01:53:30;96568.72;;;29.77;37.65
45129;BME280;35512;56.312;101.728;2023-09-19T01:56:01;96573.44;;;30.12;37.03
45129;BME280;35512;56.312;101.728;2023-09-19T02:01:03;96569.25;;;30.49;36.17
45129;BME280;35512;56.312;101.728;2023-09-19T02:03:34;96575.91;;;30.57;35.74
45129;BME280;35512;56.312;101.728;2023-09-19T02:06:03;96573.75;;;30.73;35.63
45129;BME280;35512;56.312;101.728;2023-09-19T02:08:33;96572.50;;;31.06;35.40
45129;BME280;35512;56.312;101.728;2023-09-19T02:11:02;96580.41;;;31.13;34.80
45129;BME280;35512;56.312;101.728;2023-09-19T02:13:31;96575.22;;;31.32;34.68
45129;BME280;35512;56.312;101.728;2023-09-19T02:15:59;96573.59;;;31.68;34.07
45129;BME280;35512;56.312;101.728;2023-09-19T02:18:28;96579.81;;;31.95;33.77
45129;BME280;35512;56.312;101.728;2023-09-19T02:20:56;96574.75;;;31.99;33.49
45129;BME280;35512;56.312;101.728;2023-09-19T02:23:26;96580.19;;;32.54;32.96
45129;BME280;35512;56.312;101.728;2023-09-19T02:25:55;96575.91;;;32.81;32.34
45129;BME280;35512;56.312;101.728;2023-09-19T02:28:26;96574.13;;;32.78;32.01
45129;BME280;35512;56.312;101.728;2023-09-19T02:30:58;96578.19;;;32.66;31.56
45129;BME280;35512;56.312;101.728;2023-09-19T02:33:28;96572.06;;;32.62;31.80
45129;BME280;35512;56.312;101.728;2023-09-19T02:36:00;96575.63;;;33.08;31.37
45129;BME280;35512;56.312;101.728;2023-09-19T02:38:33;96567.91;;;33.53;31.16
45129;BME280;35512;56.312;101.728;2023-09-19T02:41:01;96573.78;;;34.14;30.51
45129;BME280;35512;56.312;101.728;2023-09-19T02:43:30;96564.97;;;34.41;29.93
45129;BME280;35512;56.312;101.728;2023-09-19T02:45:58;96561.94;;;34.33;29.44
45129;BME280;35512;56.312;101.728;2023-09-19T02:48:27;96563.25;;;34.32;29.22
45129;BME280;35512;56.312;101.728;2023-09-19T02:50:57;96559.88;;;34.39;29.07
45129;BME280;35512;56.312;101.728;2023-09-19T02:53:25;96556.50;;;34.46;29.10
45129;BME280;35512;56.312;101.728;2023-09-19T02:55:53;96556.66;;;34.60;28.51
45129;BME280;35512;56.312;101.728;2023-09-19T02:58:22;96557.72;;;34.57;28.33
45129;BME280;35512;56.312;101.728;2023-09-19T03:00:52;96554.94;;;34.51;28.28
45129;BME280;35512;56.312;101.728;2023-09-19T03:03:22;96550.72;;;34.69;28.01
45129;BME280;35512;56.312;101.728;2023-09-19T03:05:51;96551.75;;;34.66;27.69
45129;BME280;35512;56.312;101.728;2023-09-19T03:08:23;96552.34;;;34.89;27.47
45129;BME280;35512;56.312;101.728;2023-09-19T03:10:52;96554.00;;;35.53;27.10
45129;BME280;35512;56.312;101.728;2023-09-19T03:13:21;96548.75;;;36.26;26.29
45129;BME280;35512;56.312;101.728;2023-09-19T03:15:49;96553.28;;;36.80;25.59
45129;BME280;35512;56.312;101.728;2023-09-19T03:18:24;96542.81;;;36.94;25.56
45129;BME280;35512;56.312;101.728;2023-09-19T03:20:57;96543.31;;;36.79;25.48
45129;BME280;35512;56.312;101.728;2023-09-19T03:23:29;96541.50;;;36.49;25.70
45129;BME280;35512;56.312;101.728;2023-09-19T03:25:58;96532.94;;;35.84;26.16
45129;BME280;35512;56.312;101.728;2023-09-19T03:28:27;96527.53;;;35.48;26.57
45129;BME280;35512;56.312;101.728;2023-09-19T03:30:59;96530.00;;;35.33;26.54
45129;BME280;35512;56.312;101.728;2023-09-19T03:33:29;96532.91;;;34.66;26.41
45129;BME280;35512;56.312;101.728;2023-09-19T03:36:02;96534.97;;;34.60;26.61
45129;BME280;35512;56.312;101.728;2023-09-19T03:38:34;96528.81;;;34.67;26.05
45129;BME280;35512;56.312;101.728;2023-09-19T03:41:03;96529.88;;;33.05;26.73
45129;BME280;35512;56.312;101.728;2023-09-19T03:43:34;96532.53;;;31.20;27.92
45129;BME280;35512;56.312;101.728;2023-09-19T03:46:04;96527.81;;;29.83;28.76
45129;BME280;35512;56.312;101.728;2023-09-19T03:48:34;96527.00;;;29.36;28.93
45129;BME280;35512;56.312;101.728;2023-09-19T03:51:03;96522.94;;;29.16;28.91
45129;BME280;35512;56.312;101.728;2023-09-19T03:53:32;96527.16;;;28.76;29.04
45129;BME280;35512;56.312;101.728;2023-09-19T03:56:01;96520.53;;;28.59;28.87
45129;BME280;35512;56.312;101.728;2023-09-19T03:58:32;96521.78;;;28.58;28.97
45129;BME280;35512;56.312;101.728;2023-09-19T04:01:03;96517.78;;;28.44;28.73
45129;BME280;35512;56.312;101.728;2023-09-19T04:03:33;96514.22;;;28.73;28.72
45129;BME280;35512;56.312;101.728;2023-09-19T04:06:15;96514.19;;;28.88;28.22
45129;BME280;35512;56.312;101.728;2023-09-19T04:08:43;96516.78;;;29.27;28.37
45129;BME280;35512;56.312;101.728;2023-09-19T04:11:12;96516.22;;;30.70;27.83
45129;BME280;35512;56.312;101.728;2023-09-19T04:13:40;96515.34;;;32.10;26.96
45129;BME280;35512;56.312;101.728;2023-09-19T04:16:09;96520.22;;;32.66;26.67
45129;BME280;35512;56.312;101.728;2023-09-19T04:18:38;96518.44;;;32.46;26.50
45129;BME280;35512;56.312;101.728;2023-09-19T04:21:08;96515.06;;;32.02;26.87
45129;BME280;35512;56.312;101.728;2023-09-19T04:23:37;96513.06;;;32.09;26.71
45129;BME280;35512;56.312;101.728;2023-09-19T04:26:06;96504.09;;;33.35;26.15
45129;BME280;35512;56.312;101.728;2023-09-19T04:28:34;96507.03;;;35.10;25.02
45129;BME280;35512;56.312;101.728;2023-09-19T04:31:06;96509.66;;;36.41;23.82
45129;BME280;35512;56.312;101.728;2023-09-19T04:33:36;96509.81;;;37.21;23.23
45129;BME280;35512;56.312;101.728;2023-09-19T04:36:05;96505.25;;;38.07;23.24
45129;BME280;35512;56.312;101.728;2023-09-19T04:38:55;96499.59;;;38.83;22.88
45129;BME280;35512;56.312;101.728;2023-09-19T04:41:23;96499.06;;;38.43;23.05
45129;BME280;35512;56.312;101.728;2023-09-19T04:43:52;96495.94;;;37.64;23.63
45129;BME280;35512;56.312;101.728;2023-09-19T04:46:21;96501.94;;;37.95;23.50
45129;BME280;35512;56.312;101.728;2023-09-19T04:48:49;96498.69;;;38.46;23.07
45129;BME280;35512;56.312;101.728;2023-09-19T04:51:18;96496.72;;;38.76;22.22
45129;BME280;35512;56.312;101.728;2023-09-19T04:53:48;96495.75;;;38.73;22.08
45129;BME280;35512;56.312;101.728;2023-09-19T04:56:17;96493.34;;;38.77;21.88
45129;BME280;35512;56.312;101.728;2023-09-19T04:58:45;96490.03;;;37.75;22.14
45129;BME280;35512;56.312;101.728;2023-09-19T05:01:15;96496.31;;;36.61;22.55
45129;BME280;35512;56.312;101.728;2023-09-19T05:03:44;96485.16;;;35.65;22.83
45129;BME280;35512;56.312;101.728;2023-09-19T05:06:13;96491.47;;;34.17;23.79
45129;BME280;35512;56.312;101.728;2023-09-19T05:08:41;96482.13;;;32.58;24.74
45129;BME280;35512;56.312;101.728;2023-09-19T05:11:10;96480.41;;;31.55;25.37
45129;BME280;35512;56.312;101.728;2023-09-19T05:13:38;96479.09;;;30.90;25.73
45129;BME280;35512;56.312;101.728;2023-09-19T05:16:07;96491.41;;;29.87;26.49
45129;BME280;35512;56.312;101.728;2023-09-19T05:18:38;96471.41;;;29.00;26.74
45129;BME280;35512;56.312;101.728;2023-09-19T05:21:06;96484.22;;;29.54;27.45
45129;BME280;35512;56.312;101.728;2023-09-19T05:23:35;96485.88;;;31.92;26.09
45129;BME280;35512;56.312;101.728;2023-09-19T05:26:05;96475.13;;;34.22;24.94
45129;BME280;35512;56.312;101.728;2023-09-19T05:28:34;96484.19;;;35.44;24.08
45129;BME280;35512;56.312;101.728;2023-09-19T05:31:02;96485.03;;;37.33;23.00
45129;BME280;35512;56.312;101.728;2023-09-19T05:33:31;96476.81;;;38.39;21.78
45129;BME280;35512;56.312;101.728;2023-09-19T05:35:59;96471.19;;;38.60;21.61
45129;BME280;35512;56.312;101.728;2023-09-19T05:38:28;96476.22;;;39.12;21.22
45129;BME280;35512;56.312;101.728;2023-09-19T05:40:56;96470.91;;;39.74;21.06
45129;BME280;35512;56.312;101.728;2023-09-19T05:43:25;96465.19;;;40.18;20.71
45129;BME280;35512;56.312;101.728;2023-09-19T05:45:53;96456.47;;;39.93;19.81
45129;BME280;35512;56.312;101.728;2023-09-19T05:48:27;96455.25;;;39.65;19.70
45129;BME280;35512;56.312;101.728;2023-09-19T05:50:56;96457.44;;;40.11;19.32
45129;BME280;35512;56.312;101.728;2023-09-19T05:53:24;96460.69;;;40.46;18.77
45129;BME280;35512;56.312;101.728;2023-09-19T05:55:53;96451.75;;;40.03;19.34
45129;BME280;35512;56.312;101.728;2023-09-19T05:58:22;96444.63;;;38.77;19.44
45129;BME280;35512;56.312;101.728;2023-09-19T06:00:51;96452.75;;;36.81;20.64
45129;BME280;35512;56.312;101.728;2023-09-19T06:03:20;96445.06;;;36.81;21.01
45129;BME280;35512;56.312;101.728;2023-09-19T06:05:49;96448.63;;;37.22;20.41
45129;BME280;35512;56.312;101.728;2023-09-19T06:08:17;96445.69;;;37.28;20.49
45129;BME280;35512;56.312;101.728;2023-09-19T06:10:46;96439.78;;;37.66;19.95
45129;BME280;35512;56.312;101.728;2023-09-19T06:13:15;96443.56;;;36.80;19.94
45129;BME280;35512;56.312;101.728;2023-09-19T06:15:43;96431.16;;;34.72;20.40
45129;BME280;35512;56.312;101.728;2023-09-19T06:18:12;96423.34;;;32.97;21.34
45129;BME280;35512;56.312;101.728;2023-09-19T06:20:47;96422.44;;;32.21;22.27
45129;BME280;35512;56.312;101.728;2023-09-19T06:23:20;96424.16;;;32.86;21.71
45129;BME280;35512;56.312;101.728;2023-09-19T06:25:49;96408.69;;;32.74;21.80
45129;BME280;35512;56.312;101.728;2023-09-19T06:28:17;96408.94;;;33.41;22.19
45129;BME280;35512;56.312;101.728;2023-09-19T06:30:51;96417.72;;;34.03;21.55
45129;BME280;35512;56.312;101.728;2023-09-19T06:33:20;96415.34;;;35.75;20.97
45129;BME280;35512;56.312;101.728;2023-09-19T06:35:49;96405.25;;;37.31;20.00
45129;BME280;35512;56.312;101.728;2023-09-19T06:38:20;96396.25;;;38.51;19.40
45129;BME280;35512;56.312;101.728;2023-09-19T06:40:49;96400.06;;;37.91;19.41
45129;BME280;35512;56.312;101.728;2023-09-19T06:43:17;96393.75;;;37.98;19.52
45129;BME280;35512;56.312;101.728;2023-09-19T06:45:46;96394.81;;;38.58;18.50
45129;BME280;35512;56.312;101.728;2023-09-19T06:48:15;96390.03;;;38.45;17.92
45129;BME280;35512;56.312;101.728;2023-09-19T06:50:43;96385.16;;;38.25;17.51
45129;BME280;35512;56.312;101.728;2023-09-19T06:53:12;96386.50;;;37.68;16.92
45129;BME280;35512;56.312;101.728;2023-09-19T06:55:41;96380.22;;;36.33;17.56
45129;BME280;35512;56.312;101.728;2023-09-19T06:58:12;96374.31;;;35.53;17.73
45129;BME280;35512;56.312;101.728;2023-09-19T07:00:41;96375.13;;;34.91;18.31
45129;BME280;35512;56.312;101.728;2023-09-19T07:03:10;96373.72;;;33.09;18.75
45129;BME280;35512;56.312;101.728;2023-09-19T07:05:41;96371.41;;;32.26;19.79
45129;BME280;35512;56.312;101.728;2023-09-19T07:08:10;96357.28;;;32.94;19.79
45129;BME280;35512;56.312;101.728;2023-09-19T07:10:41;96366.78;;;33.22;19.65
45129;BME280;35512;56.312;101.728;2023-09-19T07:13:17;96357.34;;;31.24;19.99
45129;BME280;35512;56.312;101.728;2023-09-19T07:15:45;96354.47;;;28.83;21.58
45129;BME280;35512;56.312;101.728;2023-09-19T07:18:18;96352.53;;;28.69;22.66
45129;BME280;35512;56.312;101.728;2023-09-19T07:20:47;96349.78;;;30.76;21.68
45129;BME280;35512;56.312;101.728;2023-09-19T07:23:20;96345.97;;;32.41;20.25
45129;BME280;35512;56.312;101.728;2023-09-19T07:25:50;96334.09;;;33.05;19.74
45129;BME280;35512;56.312;101.728;2023-09-19T07:28:19;96342.22;;;33.86;19.19
45129;BME280;35512;56.312;101.728;2023-09-19T07:30:48;96334.94;;;34.82;19.26
45129;BME280;35512;56.312;101.728;2023-09-19T07:33:16;96348.56;;;35.11;18.36
45129;BME280;35512;56.312;101.728;2023-09-19T07:35:45;96342.91;;;34.97;18.27
45129;BME280;35512;56.312;101.728;2023-09-19T07:38:14;96340.31;;;34.99;17.88
45129;BME280;35512;56.312;101.728;2023-09-19T07:40:43;96314.47;;;34.63;17.79
45129;BME280;35512;56.312;101.728;2023-09-19T07:43:12;96330.00;;;33.90;18.16
45129;BME280;35512;56.312;101.728;2023-09-19T07:45:40;96336.63;;;33.86;18.51
45129;BME280;35512;56.312;101.728;2023-09-19T07:48:09;96329.78;;;34.12;17.92
45129;BME280;35512;56.312;101.728;2023-09-19T07:50:42;96329.81;;;32.87;18.37
45129;BME280;35512;56.312;101.728;2023-09-19T07:53:12;96331.03;;;32.22;19.00
45129;BME280;35512;56.312;101.728;2023-09-19T07:55:45;96322.75;;;32.75;19.31
45129;BME280;35512;56.312;101.728;2023-09-19T07:58:16;96320.50;;;33.62;18.64
45129;BME280;35512;56.312;101.728;2023-09-19T08:00:45;96338.69;;;33.44;18.78
45129;BME280;35512;56.312;101.728;2023-09-19T08:03:15;96341.53;;;33.75;18.91
45129;BME280;35512;56.312;101.728;2023-09-19T08:05:44;96339.34;;;34.23;18.13
45129;BME280;35512;56.312;101.728;2023-09-19T08:08:13;96335.34;;;34.43;18.36
45129;BME280;35512;56.312;101.728;2023-09-19T08:10:43;96342.66;;;33.60;19.05
45129;BME280;35512;56.312;101.728;2023-09-19T08:13:14;96339.03;;;32.71;20.02
45129;BME280;35512;56.312;101.728;2023-09-19T08:15:43;96350.53;;;31.53;20.36
45129;BME280;35512;56.312;101.728;2023-09-19T08:18:13;96339.63;;;29.86;21.20
45129;BME280;35512;56.312;101.728;2023-09-19T08:20:42;96343.16;;;29.13;22.20
45129;BME280;35512;56.312;101.728;2023-09-19T08:23:13;96346.19;;;30.64;21.83
45129;BME280;35512;56.312;101.728;2023-09-19T08:25:42;96342.94;;;32.11;20.87
45129;BME280;35512;56.312;101.728;2023-09-19T08:28:10;96348.75;;;31.45;20.54
45129;BME280;35512;56.312;101.728;2023-09-19T08:30:40;96339.56;;;29.54;21.78
45129;BME280;35512;56.312;101.728;2023-09-19T08:33:09;96336.50;;;27.93;23.06
45129;BME280;35512;56.312;101.728;2023-09-19T08:35:39;96340.34;;;26.96;23.80
45129;BME280;35512;56.312;101.728;2023-09-19T08:38:09;96334.53;;;26.46;24.44
45129;BME280;35512;56.312;101.728;2023-09-19T08:40:39;96337.44;;;25.75;24.77
45129;BME280;35512;56.312;101.728;2023-09-19T08:43:09;96326.50;;;25.10;25.46
45129;BME280;35512;56.312;101.728;2023-09-19T08:45:40;96327.34;;;24.61;25.92
45129;BME280;35512;56.312;101.728;2023-09-19T08:53:41;96334.31;;;23.08;26.82
45129;BME280;35512;56.312;101.728;2023-09-19T08:56:11;96331.03;;;23.01;26.99
45129;BME280;35512;56.312;101.728;2023-09-19T08:58:48;96332.31;;;22.87;27.03
45129;BME280;35512;56.312;101.728;2023-09-19T09:01:21;96326.47;;;22.85;27.15
45129;BME280;35512;56.312;101.728;2023-09-19T09:03:55;96331.25;;;22.71;27.36
45129;BME280;35512;56.312;101.728;2023-09-19T09:06:24;96325.06;;;22.45;27.54
45129;BME280;35512;56.312;101.728;2023-09-19T09:08:53;96338.59;;;22.14;27.79
45129;BME280;35512;56.312;101.728;2023-09-19T09:11:22;96335.63;;;21.95;27.99
45129;BME280;35512;56.312;101.728;2023-09-19T09:13:53;96336.09;;;21.81;28.08
45129;BME280;35512;56.312;101.728;2023-09-19T09:16:22;96333.75;;;21.66;28.41
45129;BME280;35512;56.312;101.728;2023-09-19T09:18:54;96340.00;;;21.54;28.59
45129;BME280;35512;56.312;101.728;2023-09-19T09:21:23;96334.91;;;21.52;28.95
45129;BME280;35512;56.312;101.728;2023-09-19T09:23:53;96329.13;;;21.63;28.98
45129;BME280;35512;56.312;101.728;2023-09-19T09:26:41;96332.56;;;21.80;29.14
45129;BME280;35512;56.312;101.728;2023-09-19T09:29:10;96332.88;;;21.95;29.31
45129;BME280;35512;56.312;101.728;2023-09-19T09:31:42;96330.03;;;22.11;29.27
45129;BME280;35512;56.312;101.728;2023-09-19T09:34:11;96323.09;;;22.20;29.37
45129;BME280;35512;56.312;101.728;2023-09-19T09:36:41;96332.22;;;22.17;29.46
45129;BME280;35512;56.312;101.728;2023-09-19T09:39:10;96337.94;;;22.09;29.73
45129;BME280;35512;56.312;101.728;2023-09-19T09:41:53;96340.91;;;21.89;29.89
45129;BME280;35512;56.312;101.728;2023-09-19T09:44:22;96340.47;;;21.65;30.25
45129;BME280;35512;56.312;101.728;2023-09-19T09:46:52;96336.78;;;21.42;30.51
45129;BME280;35512;56.312;101.728;2023-09-19T09:49:25;96339.91;;;21.28;30.70
45129;BME280;35512;56.312;101.728;2023-09-19T09:52:00;96330.97;;;21.11;31.03
45129;BME280;35512;56.312;101.728;2023-09-19T09:54:29;96333.16;;;21.03;31.34
45129;BME280;35512;56.312;101.728;2023-09-19T09:57:10;96341.38;;;21.03;31.32
45129;BME280;35512;56.312;101.728;2023-09-19T10:04:58;96330.50;;;20.70;32.31
45129;BME280;35512;56.312;101.728;2023-09-19T10:07:36;96330.25;;;20.48;32.42
45129;BME280;35512;56.312;101.728;2023-09-19T10:10:32;96329.47;;;20.31;32.62
45129;BME280;35512;56.312;101.728;2023-09-19T10:13:07;96324.25;;;20.20;32.52
45129;BME280;35512;56.312;101.728;2023-09-19T10:15:42;96323.97;;;20.15;32.72
45129;BME280;35512;56.312;101.728;2023-09-19T10:18:14;96327.59;;;20.12;32.88
45129;BME280;35512;56.312;101.728;2023-09-19T10:20:46;96332.38;;;20.07;32.68
45129;BME280;35512;56.312;101.728;2023-09-19T10:23:17;96333.25;;;20.04;32.88
45129;BME280;35512;56.312;101.728;2023-09-19T10:25:50;96325.16;;;19.97;32.78
45129;BME280;35512;56.312;101.728;2023-09-19T10:28:20;96332.00;;;19.89;33.13
45129;BME280;35512;56.312;101.728;2023-09-19T10:30:51;96330.34;;;19.75;33.12
45129;BME280;35512;56.312;101.728;2023-09-19T10:33:22;96332.19;;;19.62;33.18
45129;BME280;35512;56.312;101.728;2023-09-19T10:35:50;96333.69;;;19.46;33.50
45129;BME280;35512;56.312;101.728;2023-09-19T10:38:23;96336.38;;;19.30;33.45
45129;BME280;35512;56.312;101.728;2023-09-19T10:40:55;96344.53;;;19.13;33.92
45129;BME280;35512;56.312;101.728;2023-09-19T10:43:29;96336.56;;;18.99;34.02
45129;BME280;35512;56.312;101.728;2023-09-19T10:46:03;96338.00;;;18.83;34.23
45129;BME280;35512;56.312;101.728;2023-09-19T10:48:33;96339.81;;;18.70;34.22
45129;BME280;35512;56.312;101.728;2023-09-19T10:53:53;96339.47;;;18.44;35.03
45129;BME280;35512;56.312;101.728;2023-09-19T10:56:29;96352.16;;;18.31;35.46
45129;BME280;35512;56.312;101.728;2023-09-19T10:59:08;96353.19;;;18.17;35.67
45129;BME280;35512;56.312;101.728;2023-09-19T11:09:56;96355.97;;;17.55;36.24
45129;BME280;35512;56.312;101.728;2023-09-19T11:16:02;96359.81;;;17.27;36.72
45129;BME280;35512;56.312;101.728;2023-09-19T11:18:02;96361.53;;;17.13;36.69
45129;BME280;35512;56.312;101.728;2023-09-19T11:20:54;96365.19;;;16.99;36.93
45129;BME280;35512;56.312;101.728;2023-09-19T11:23:39;96366.44;;;16.91;37.43
45129;BME280;35512;56.312;101.728;2023-09-19T11:26:10;96365.75;;;16.80;37.71
45129;BME280;35512;56.312;101.728;2023-09-19T11:29:23;96368.19;;;16.67;37.91
45129;BME280;35512;56.312;101.728;2023-09-19T11:31:47;96369.09;;;16.56;38.07
45129;BME280;35512;56.312;101.728;2023-09-19T11:40:09;96374.00;;;16.23;38.96
45129;BME280;35512;56.312;101.728;2023-09-19T11:42:47;96377.94;;;16.15;39.09
45129;BME280;35512;56.312;101.728;2023-09-19T11:48:15;96379.63;;;15.98;39.52
45129;BME280;35512;56.312;101.728;2023-09-19T11:50:44;96381.59;;;15.91;39.73
45129;BME280;35512;56.312;101.728;2023-09-19T11:53:14;96377.38;;;15.82;39.57
45129;BME280;35512;56.312;101.728;2023-09-19T11:55:44;96379.31;;;15.75;39.79
45129;BME280;35512;56.312;101.728;2023-09-19T11:58:16;96384.81;;;15.67;39.88
45129;BME280;35512;56.312;101.728;2023-09-19T12:00:47;96381.75;;;15.62;40.19
45129;BME280;35512;56.312;101.728;2023-09-19T12:03:23;96391.09;;;15.57;40.24
45129;BME280;35512;56.312;101.728;2023-09-19T12:05:53;96386.81;;;15.52;40.49
45129;BME280;35512;56.312;101.728;2023-09-19T12:08:21;96389.94;;;15.47;40.65
45129;BME280;35512;56.312;101.728;2023-09-19T12:10:50;96385.34;;;15.41;40.68
45129;BME280;35512;56.312;101.728;2023-09-19T12:13:23;96383.03;;;15.32;40.42
45129;BME280;35512;56.312;101.728;2023-09-19T12:15:53;96392.41;;;15.16;40.49
45129;BME280;35512;56.312;101.728;2023-09-19T12:18:26;96387.38;;;14.97;40.56
45129;BME280;35512;56.312;101.728;2023-09-19T12:20:55;96387.44;;;14.79;40.85
45129;BME280;35512;56.312;101.728;2023-09-19T12:23:26;96388.22;;;14.68;40.76
45129;BME280;35512;56.312;101.728;2023-09-19T12:25:54;96390.13;;;14.57;41.07
45129;BME280;35512;56.312;101.728;2023-09-19T12:28:28;96388.59;;;14.45;41.23
45129;BME280;35512;56.312;101.728;2023-09-19T12:31:08;96387.81;;;14.34;41.12
45129;BME280;35512;56.312;101.728;2023-09-19T12:33:37;96388.97;;;14.22;40.97
45129;BME280;35512;56.312;101.728;2023-09-19T12:36:21;96394.00;;;14.13;41.03
45129;BME280;35512;56.312;101.728;2023-09-19T12:38:56;96395.91;;;14.01;41.45
45129;BME280;35512;56.312;101.728;2023-09-19T12:41:28;96393.97;;;13.91;41.16
45129;BME280;35512;56.312;101.728;2023-09-19T12:43:56;96403.25;;;13.79;41.33
45129;BME280;35512;56.312;101.728;2023-09-19T12:46:26;96405.53;;;13.70;41.79
45129;BME280;35512;56.312;101.728;2023-09-19T12:51:45;96400.06;;;13.56;41.52
45129;BME280;35512;56.312;101.728;2023-09-19T12:54:14;96403.56;;;13.52;41.80
45129;BME280;35512;56.312;101.728;2023-09-19T12:56:46;96408.16;;;13.45;41.79
45129;BME280;35512;56.312;101.728;2023-09-19T12:59:16;96412.78;;;13.37;42.00
45129;BME280;35512;56.312;101.728;2023-09-19T13:01:46;96416.19;;;13.30;42.21
45129;BME280;35512;56.312;101.728;2023-09-19T13:04:19;96417.72;;;13.24;42.23
45129;BME280;35512;56.312;101.728;2023-09-19T13:06:49;96414.22;;;13.20;42.19
45129;BME280;35512;56.312;101.728;2023-09-19T13:09:21;96413.84;;;13.22;42.26
45129;BME280;35512;56.312;101.728;2023-09-19T13:11:52;96416.59;;;13.25;42.17
45129;BME280;35512;56.312;101.728;2023-09-19T13:14:23;96415.03;;;13.28;42.38
45129;BME280;35512;56.312;101.728;2023-09-19T13:17:06;96421.63;;;13.27;42.00
45129;BME280;35512;56.312;101.728;2023-09-19T13:25:07;96428.97;;;13.23;42.63
45129;BME280;35512;56.312;101.728;2023-09-19T13:27:36;96430.47;;;13.16;42.72
45129;BME280;35512;56.312;101.728;2023-09-19T13:30:04;96430.44;;;13.09;42.66
45129;BME280;35512;56.312;101.728;2023-09-19T13:32:33;96430.00;;;13.04;42.74
45129;BME280;35512;56.312;101.728;2023-09-19T13:35:02;96436.56;;;12.99;42.66
45129;BME280;35512;56.312;101.728;2023-09-19T13:37:30;96430.31;;;12.95;42.97
45129;BME280;35512;56.312;101.728;2023-09-19T13:39:59;96436.09;;;12.90;43.00
45129;BME280;35512;56.312;101.728;2023-09-19T13:42:29;96432.19;;;12.83;42.87
45129;BME280;35512;56.312;101.728;2023-09-19T13:44:58;96438.75;;;12.79;42.93
45129;BME280;35512;56.312;101.728;2023-09-19T13:47:27;96429.41;;;12.73;43.12
45129;BME280;35512;56.312;101.728;2023-09-19T13:49:57;96431.31;;;12.68;43.21
45129;BME280;35512;56.312;101.728;2023-09-19T13:52:25;96430.88;;;12.63;43.08
45129;BME280;35512;56.312;101.728;2023-09-19T13:54:56;96435.13;;;12.60;43.28
45129;BME280;35512;56.312;101.728;2023-09-19T13:57:27;96432.38;;;12.57;43.42
45129;BME280;35512;56.312;101.728;2023-09-19T13:59:57;96433.13;;;12.54;43.15
45129;BME280;35512;56.312;101.728;2023-09-19T14:02:26;96436.25;;;12.56;43.36